Time;durP1;ratioP1;P1;durP2;ratioP2;P2;SDS_P1;SDS_P2;PMS_P1;PMS_P2;Temp;Humidity;BMP_temperature;BMP_pressure;BME280_temperature;BME280_humidity;BME280_pressure;Samples;Min_cycle;Max_cycle;Signal;HPM_P1;HPM_P2
2022/09/22 00:01:45;;;;;;;4.90;3.60;;;13.80;58.80;;;;;;5043680;28;20573;-76
2022/09/22 00:04:12;;;;;;;3.40;3.10;;;13.80;58.80;;;;;;5045881;28;20093;-76
2022/09/22 00:06:50;;;;;;;6.05;3.42;;;13.80;58.90;;;;;;5045598;28;20021;-75
2022/09/22 00:09:19;;;;;;;4.60;3.13;;;13.70;58.70;;;;;;5047112;28;20033;-76
2022/09/22 00:11:48;;;;;;;4.05;3.55;;;13.70;58.80;;;;;;5044664;28;20028;-76
2022/09/22 00:14:23;;;;;;;4.03;3.63;;;13.70;58.80;;;;;;5043509;28;20029;-74
2022/09/22 00:16:55;;;;;;;3.92;3.50;;;13.60;58.80;;;;;;5039846;28;20059;-75
2022/09/22 00:19:24;;;;;;;;;;;13.60;58.80;;;;;;5033521;28;20041;-74
2022/09/22 00:21:51;;;;;;;4.30;3.90;;;13.60;58.80;;;;;;5045029;28;19916;-75
2022/09/22 00:24:21;;;;;;;4.50;3.80;;;13.50;58.50;;;;;;5032615;28;20037;-75
2022/09/22 00:26:47;;;;;;;4.18;3.50;;;13.50;58.60;;;;;;5044940;28;20029;-74
2022/09/22 00:29:15;;;;;;;4.47;3.58;;;13.50;58.60;;;;;;5023833;28;20045;-75
2022/09/22 00:31:43;;;;;;;4.10;3.65;;;13.40;58.70;;;;;;5047175;28;20041;-74
2022/09/22 00:34:15;;;;;;;3.75;3.38;;;13.40;58.80;;;;;;5041134;28;20082;-76
2022/09/22 00:36:41;;;;;;;4.97;4.03;;;13.40;58.90;;;;;;5046222;28;20477;-75
2022/09/22 00:39:07;;;;;;;4.13;3.42;;;13.40;59.50;;;;;;5043687;28;20049;-76
2022/09/22 00:41:36;;;;;;;4.00;3.60;;;13.30;58.80;;;;;;5028524;28;20029;-76
2022/09/22 00:44:19;;;;;;;3.28;2.97;;;13.30;59.00;;;;;;5049182;28;20480;-75
2022/09/22 00:46:57;;;;;;;3.50;3.20;;;13.30;59.10;;;;;;5046973;28;20041;-74
2022/09/22 00:49:46;;;;;;;4.10;3.60;;;13.30;59.00;;;;;;5048111;28;20029;-75
2022/09/22 00:52:16;;;;;;;4.05;3.53;;;13.30;59.20;;;;;;5037727;28;20090;-76
2022/09/22 00:54:43;;;;;;;3.60;3.30;;;13.20;58.90;;;;;;5046944;28;20017;-75
2022/09/22 00:57:20;;;;;;;4.18;3.25;;;13.20;58.90;;;;;;5039817;28;20056;-75
2022/09/22 00:59:49;;;;;;;3.90;3.55;;;13.20;59.00;;;;;;5047357;28;20045;-75
2022/09/22 01:02:16;;;;;;;3.35;3.05;;;13.20;59.00;;;;;;5058119;28;20081;-75
2022/09/22 01:04:43;;;;;;;4.40;3.63;;;13.20;59.10;;;;;;5040186;28;20035;-76
2022/09/22 01:07:11;;;;;;;3.85;3.08;;;13.10;59.50;;;;;;5039291;28;20033;-76
2022/09/22 01:09:37;;;;;;;3.33;2.90;;;13.10;59.10;;;;;;5034737;28;20033;-76
2022/09/22 01:12:04;;;;;;;4.05;3.72;;;13.10;59.10;;;;;;5049611;28;20037;-76
2022/09/22 01:15:01;;;;;;;3.42;3.10;;;13.10;59.10;;;;;;5043482;28;20035;-76
2022/09/22 01:18:05;;;;;;;3.00;2.80;;;13.00;59.20;;;;;;5030503;28;20060;-76
2022/09/22 01:21:01;;;;;;;3.58;2.90;;;13.00;59.20;;;;;;5044395;28;20515;-76
2022/09/22 01:23:39;;;;;;;3.28;2.97;;;13.00;59.30;;;;;;5059993;28;20092;-77
2022/09/22 01:26:24;;;;;;;3.60;3.20;;;12.90;59.00;;;;;;5054933;28;20059;-75
2022/09/22 01:29:22;;;;;;;3.47;3.15;;;12.90;59.10;;;;;;5055125;28;20128;-76
2022/09/22 01:32:15;;;;;;;3.33;3.00;;;12.90;59.30;;;;;;5052948;28;20131;-76
2022/09/22 01:34:50;;;;;;;2.70;2.47;;;12.80;59.20;;;;;;5052531;28;20029;-75
2022/09/22 01:37:45;;;;;;;3.22;2.92;;;12.80;59.10;;;;;;5049903;28;20190;-76
2022/09/22 01:40:31;;;;;;;2.95;2.65;;;12.80;59.30;;;;;;5030473;28;20037;-74
2022/09/22 01:43:42;;;;;;;3.63;3.33;;;12.80;59.40;;;;;;5047318;28;20063;-75
2022/09/22 01:46:21;;;;;;;3.33;3.00;;;12.70;59.30;;;;;;5032872;28;20094;-75
2022/09/22 01:48:51;;;;;;;4.03;3.00;;;12.70;59.30;;;;;;5022173;28;20469;-76
2022/09/22 01:51:23;;;;;;;3.35;3.05;;;12.70;59.30;;;;;;5052394;28;20106;-76
2022/09/22 01:53:58;;;;;;;3.22;2.70;;;12.70;59.40;;;;;;5050336;28;20310;-75
2022/09/22 01:56:27;;;;;;;3.33;3.03;;;12.70;59.60;;;;;;5048620;28;20045;-76
2022/09/22 01:58:59;;;;;;;3.60;3.30;;;12.60;59.30;;;;;;5049290;28;20545;-76
2022/09/22 02:01:36;;;;;;;3.17;2.88;;;12.60;59.40;;;;;;5055390;28;20009;-76
2022/09/22 02:04:14;;;;;;;3.65;3.30;;;12.70;59.70;;;;;;5035045;28;20041;-76
2022/09/22 02:06:47;;;;;;;3.20;2.85;;;12.60;59.50;;;;;;5047011;28;20504;-75
2022/09/22 02:09:22;;;;;;;3.30;3.00;;;12.60;59.50;;;;;;5051070;28;20051;-76
2022/09/22 02:11:49;;;;;;;3.35;3.05;;;12.50;59.40;;;;;;5051394;28;20090;-75
2022/09/22 02:14:16;;;;;;;4.38;3.13;;;12.60;59.60;;;;;;5050014;28;20470;-76
2022/09/22 02:16:42;;;;;;;3.28;2.95;;;12.50;59.50;;;;;;5030975;28;20131;-76
2022/09/22 02:19:19;;;;;;;3.42;3.13;;;12.50;59.60;;;;;;5031694;28;20475;-75
2022/09/22 02:21:47;;;;;;;3.45;2.88;;;12.50;59.80;;;;;;5036272;28;20047;-76
2022/09/22 02:24:33;;;;;;;3.55;3.25;;;12.40;59.60;;;;;;5028643;28;20357;-76
2022/09/22 02:27:25;;;;;;;3.40;3.10;;;12.50;60.00;;;;;;5050282;28;20031;-76
2022/09/22 02:30:04;;;;;;;3.20;2.90;;;12.40;59.70;;;;;;5050743;28;20041;-75
2022/09/22 02:32:31;;;;;;;3.38;3.08;;;12.40;59.90;;;;;;5045887;28;20267;-76
2022/09/22 02:35:00;;;;;;;3.30;3.00;;;12.40;59.80;;;;;;5039488;28;20029;-74
2022/09/22 02:37:47;;;;;;;3.38;2.90;;;12.30;59.70;;;;;;5026008;28;20027;-75
2022/09/22 02:40:19;;;;;;;3.28;2.97;;;12.30;59.90;;;;;;5041432;28;20039;-76
2022/09/22 02:43:24;;;;;;;3.40;3.10;;;12.30;59.80;;;;;;5050031;28;20051;-76
2022/09/22 02:46:24;;;;;;;3.40;2.47;;;12.30;60.50;;;;;;5038655;28;20032;-75
2022/09/22 02:48:55;;;;;;;4.97;3.45;;;12.30;59.90;;;;;;5035517;28;20021;-76
2022/09/22 02:51:21;;;;;;;2.83;2.42;;;12.30;59.80;;;;;;5048222;28;20102;-76
2022/09/22 02:53:47;;;;;;;3.25;2.83;;;12.30;59.80;;;;;;5047112;28;20029;-76
2022/09/22 02:56:13;;;;;;;3.50;3.20;;;12.30;59.90;;;;;;5049278;28;20021;-76
2022/09/22 02:58:39;;;;;;;3.65;2.80;;;12.30;59.90;;;;;;5049540;28;20514;-75
2022/09/22 03:01:05;;;;;;;3.20;2.85;;;12.30;60.00;;;;;;5043849;28;20025;-76
2022/09/22 03:03:31;;;;;;;3.42;2.92;;;12.30;60.00;;;;;;5056733;28;20084;-76
2022/09/22 03:05:57;;;;;;;3.53;2.88;;;12.30;60.10;;;;;;5044100;28;20127;-75
2022/09/22 03:08:23;;;;;;;4.18;3.70;;;12.30;60.10;;;;;;5049833;28;20021;-76
2022/09/22 03:10:50;;;;;;;4.47;3.00;;;12.30;60.20;;;;;;5048137;28;20029;-76
2022/09/22 03:13:15;;;;;;;3.28;2.90;;;12.30;60.20;;;;;;5049776;28;20404;-76
2022/09/22 03:15:42;;;;;;;2.80;2.60;;;12.30;60.20;;;;;;5049392;28;20342;-74
2022/09/22 03:18:08;;;;;;;3.40;3.10;;;12.30;60.30;;;;;;5043709;28;20029;-76
2022/09/22 03:20:34;;;;;;;3.05;2.75;;;12.20;60.10;;;;;;5046397;28;20164;-75
2022/09/22 03:23:00;;;;;;;3.53;2.97;;;12.20;60.10;;;;;;5050139;28;20021;-75
2022/09/22 03:25:26;;;;;;;3.45;3.15;;;12.20;60.20;;;;;;5042399;28;20121;-74
2022/09/22 03:27:52;;;;;;;3.15;2.80;;;12.20;60.20;;;;;;5048561;28;20437;-76
2022/09/22 03:30:18;;;;;;;3.65;3.30;;;12.20;60.20;;;;;;5048707;28;20027;-75
2022/09/22 03:32:44;;;;;;;4.40;4.00;;;12.20;60.30;;;;;;5052231;28;20397;-75
2022/09/22 03:35:09;;;;;;;4.00;3.03;;;12.20;60.30;;;;;;5050179;28;20017;-75
2022/09/22 03:37:36;;;;;;;3.35;3.03;;;12.20;60.40;;;;;;5049692;28;20029;-77
2022/09/22 03:40:03;;;;;;;3.78;3.38;;;12.10;60.20;;;;;;5050621;28;20040;-76
2022/09/22 03:42:29;;;;;;;4.80;3.28;;;12.10;60.30;;;;;;5048042;28;20029;-76
2022/09/22 03:44:56;;;;;;;4.25;3.75;;;12.10;60.30;;;;;;5049576;28;20439;-76
2022/09/22 03:47:22;;;;;;;3.00;2.80;;;12.10;60.40;;;;;;5045835;28;20770;-75
2022/09/22 03:49:49;;;;;;;3.58;3.28;;;12.10;60.40;;;;;;5048387;28;20048;-76
2022/09/22 03:52:18;;;;;;;3.55;3.25;;;12.10;60.50;;;;;;5047203;28;20578;-76
2022/09/22 03:54:44;;;;;;;3.50;3.15;;;12.00;60.30;;;;;;5050060;28;20029;-75
2022/09/22 03:57:10;;;;;;;3.63;3.17;;;12.00;60.40;;;;;;5026547;28;20437;-76
2022/09/22 03:59:36;;;;;;;4.18;3.78;;;12.00;60.40;;;;;;5048710;28;20033;-75
2022/09/22 04:02:03;;;;;;;4.15;3.55;;;12.00;60.50;;;;;;5054864;28;20028;-75
2022/09/22 04:04:29;;;;;;;5.60;3.53;;;11.90;60.40;;;;;;5048654;28;20046;-75
2022/09/22 04:06:55;;;;;;;3.75;3.45;;;11.90;60.50;;;;;;5040084;28;20033;-75
2022/09/22 04:09:21;;;;;;;3.88;3.47;;;11.90;60.60;;;;;;5027569;28;20025;-76
2022/09/22 04:11:48;;;;;;;5.95;4.15;;;11.90;60.60;;;;;;5044808;28;20039;-75
2022/09/22 04:14:14;;;;;;;3.80;3.47;;;11.90;60.70;;;;;;5053523;28;20108;-75
2022/09/22 04:16:41;;;;;;;4.25;3.85;;;11.90;60.70;;;;;;5051104;28;20071;-76
2022/09/22 04:19:08;;;;;;;4.93;3.70;;;11.90;61.30;;;;;;5050684;28;20316;-76
2022/09/22 04:21:34;;;;;;;4.88;4.10;;;11.90;60.80;;;;;;5052417;28;20023;-76
2022/09/22 04:24:01;;;;;;;4.53;4.10;;;11.90;60.90;;;;;;5051855;28;20029;-76
2022/09/22 04:26:27;;;;;;;4.57;4.15;;;11.90;61.50;;;;;;5052725;28;20052;-76
2022/09/22 04:28:53;;;;;;;4.57;4.18;;;11.90;61.00;;;;;;5052937;28;20059;-74
2022/09/22 04:31:21;;;;;;;4.85;4.35;;;11.90;61.00;;;;;;5049579;28;20532;-76
2022/09/22 04:33:47;;;;;;;4.90;4.40;;;11.90;61.10;;;;;;5050477;28;20033;-76
2022/09/22 04:36:14;;;;;;;5.32;4.68;;;11.90;61.10;;;;;;5051149;28;20430;-74
2022/09/22 04:38:40;;;;;;;5.25;4.75;;;11.90;61.20;;;;;;5050435;28;20033;-77
2022/09/22 04:41:07;;;;;;;4.65;4.25;;;11.90;61.20;;;;;;5051836;28;20051;-76
2022/09/22 04:43:32;;;;;;;4.82;4.38;;;11.90;61.30;;;;;;5045943;28;20037;-76
2022/09/22 04:45:58;;;;;;;6.05;5.45;;;11.90;61.40;;;;;;5046822;28;20029;-76
2022/09/22 04:48:24;;;;;;;5.60;5.10;;;11.90;61.40;;;;;;5040281;28;20026;-77
2022/09/22 04:50:50;;;;;;;5.82;5.22;;;11.90;61.40;;;;;;5045087;28;20296;-76
2022/09/22 04:53:16;;;;;;;5.55;4.97;;;11.90;61.40;;;;;;5044468;28;20412;-76
2022/09/22 04:55:43;;;;;;;5.85;5.35;;;12.00;61.60;;;;;;5046726;28;20493;-76
2022/09/22 04:58:09;;;;;;;7.00;6.20;;;12.00;61.70;;;;;;5047905;28;20303;-74
2022/09/22 05:00:35;;;;;;;6.38;5.78;;;11.90;61.60;;;;;;5047792;28;20033;-75
2022/09/22 05:03:07;;;;;;;5.93;4.65;;;12.00;61.80;;;;;;5047152;28;20090;-75
2022/09/22 05:05:34;;;;;;;6.60;5.03;;;11.90;61.70;;;;;;5048071;28;20033;-74
2022/09/22 05:08:00;;;;;;;5.95;5.35;;;12.00;61.90;;;;;;5045426;28;20040;-75
2022/09/22 05:10:31;;;;;;;5.00;4.50;;;12.00;61.90;;;;;;5047989;28;20086;-75
2022/09/22 05:12:57;;;;;;;6.35;5.22;;;12.00;61.90;;;;;;5046500;28;20029;-76
2022/09/22 05:15:24;;;;;;;5.25;4.75;;;12.00;62.00;;;;;;5048404;28;20652;-75
2022/09/22 05:17:52;;;;;;;5.18;4.68;;;12.00;62.00;;;;;;5042530;28;20039;-75
2022/09/22 05:20:20;;;;;;;6.68;4.88;;;12.10;62.20;;;;;;5045756;28;20045;-76
2022/09/22 05:22:46;;;;;;;5.88;5.28;;;12.10;62.20;;;;;;5041884;28;20025;-75
2022/09/22 05:25:15;;;;;;;5.78;4.82;;;12.00;62.00;;;;;;5028873;28;20256;-75
2022/09/22 05:27:54;;;;;;;5.40;4.90;;;12.10;62.20;;;;;;5048447;28;20555;-75
2022/09/22 05:30:22;;;;;;;5.30;4.80;;;12.10;62.40;;;;;;5048343;28;20033;-75
2022/09/22 05:32:49;;;;;;;6.90;6.30;;;12.00;62.10;;;;;;5047054;28;20455;-77
2022/09/22 05:35:18;;;;;;;8.10;6.47;;;12.00;62.20;;;;;;5035669;28;20033;-77
2022/09/22 05:37:46;;;;;;;7.53;6.50;;;12.00;62.20;;;;;;5046175;28;20336;-76
2022/09/22 05:40:13;;;;;;;7.35;6.60;;;12.00;62.30;;;;;;5051639;28;20340;-77
2022/09/22 05:42:46;;;;;;;7.13;6.43;;;12.00;62.40;;;;;;5046724;28;20043;-76
2022/09/22 05:45:13;;;;;;;7.95;7.25;;;12.00;62.50;;;;;;5043149;28;20029;-77
2022/09/22 05:47:39;;;;;;;7.63;6.82;;;12.00;62.40;;;;;;5032451;28;20041;-75
2022/09/22 05:50:08;;;;;;;8.20;7.43;;;11.90;62.30;;;;;;5041027;28;20047;-76
2022/09/22 05:52:34;;;;;;;8.02;6.75;;;11.90;62.40;;;;;;5041853;28;20489;-76
2022/09/22 05:55:00;;;;;;;8.45;7.55;;;11.90;62.40;;;;;;5049929;28;20056;-75
2022/09/22 05:57:27;;;;;;;8.05;7.18;;;11.90;62.50;;;;;;5046595;28;20043;-76
2022/09/22 05:59:54;;;;;;;8.75;7.40;;;11.80;62.40;;;;;;5050540;28;20036;-75
2022/09/22 06:02:20;;;;;;;6.85;6.18;;;11.80;62.50;;;;;;5069766;28;20039;-78
2022/09/22 06:04:46;;;;;;;8.82;7.95;;;11.80;62.60;;;;;;5058252;28;20037;-77
2022/09/22 06:07:12;;;;;;;9.07;8.13;;;11.80;62.70;;;;;;5065797;28;20707;-76
2022/09/22 06:09:38;;;;;;;8.57;7.78;;;11.80;62.80;;;;;;5066090;28;20105;-77
2022/09/22 06:12:07;;;;;;;8.55;7.65;;;11.80;63.00;;;;;;5042126;28;20094;-75
2022/09/22 06:14:36;;;;;;;9.50;8.50;;;11.80;63.10;;;;;;5048441;28;20745;-77
2022/09/22 06:17:03;;;;;;;8.00;7.20;;;11.80;63.20;;;;;;5046004;28;20051;-76
2022/09/22 06:19:32;;;;;;;9.25;8.07;;;11.80;63.30;;;;;;5048598;28;20341;-80
2022/09/22 06:21:58;;;;;;;7.60;6.90;;;11.80;63.30;;;;;;5045249;28;20029;-77
2022/09/22 06:24:24;;;;;;;9.23;7.72;;;11.80;63.40;;;;;;5049484;28;20043;-76
2022/09/22 06:26:52;;;;;;;8.95;8.05;;;11.80;63.40;;;;;;5048539;28;20260;-76
2022/09/22 06:29:18;;;;;;;8.63;7.85;;;11.90;63.60;;;;;;5028602;28;20072;-77
2022/09/22 06:31:45;;;;;;;8.45;7.43;;;11.80;63.50;;;;;;5030152;28;20059;-81
2022/09/22 06:34:11;;;;;;;9.57;8.45;;;11.80;63.50;;;;;;5013233;28;20026;-79
2022/09/22 06:36:39;;;;;;;9.45;8.45;;;11.90;63.70;;;;;;5050318;28;20024;-81
2022/09/22 06:39:05;;;;;;;9.13;7.60;;;11.90;63.70;;;;;;5044409;28;20043;-81
2022/09/22 06:41:32;;;;;;;8.50;7.57;;;11.90;63.60;;;;;;5048808;28;20037;-78
2022/09/22 06:44:04;;;;;;;9.57;7.90;;;11.90;63.60;;;;;;5038142;28;20022;-75
2022/09/22 06:46:36;;;;;;;10.13;7.70;;;11.90;63.60;;;;;;5041432;28;20118;-76
2022/09/22 06:49:02;;;;;;;8.98;8.07;;;12.00;63.70;;;;;;5040794;28;20032;-78
2022/09/22 06:51:31;;;;;;;10.30;7.50;;;12.10;63.80;;;;;;5048617;28;20052;-77
2022/09/22 06:53:59;;;;;;;9.63;8.65;;;12.10;63.80;;;;;;5048137;28;20036;-75
2022/09/22 06:56:26;;;;;;;10.18;9.15;;;12.10;63.70;;;;;;5048192;28;20044;-76
2022/09/22 06:58:55;;;;;;;8.95;7.80;;;12.20;64.40;;;;;;5044932;28;20534;-76
2022/09/22 07:01:22;;;;;;;9.32;8.40;;;12.20;63.80;;;;;;5052565;28;20024;-76
2022/09/22 07:03:51;;;;;;;9.10;8.20;;;12.30;64.00;;;;;;5054413;28;20025;-76
2022/09/22 07:06:17;;;;;;;9.88;8.77;;;12.30;64.40;;;;;;5043033;28;20041;-76
2022/09/22 07:08:46;;;;;;;9.63;8.52;;;12.40;64.00;;;;;;5041380;28;20400;-78
2022/09/22 07:11:16;;;;;;;8.98;8.15;;;12.50;64.10;;;;;;5045452;28;20029;-76
2022/09/22 07:13:45;;;;;;;10.68;9.40;;;12.60;64.30;;;;;;5033193;28;20034;-76
2022/09/22 07:16:16;;;;;;;10.35;9.27;;;12.60;64.20;;;;;;5042467;28;20029;-79
2022/09/22 07:18:50;;;;;;;9.93;8.70;;;12.70;64.40;;;;;;5036077;28;20048;-77
2022/09/22 07:21:23;;;;;;;10.02;9.02;;;12.80;64.40;;;;;;5050525;28;20167;-77
2022/09/22 07:23:53;;;;;;;10.00;8.55;;;13.00;64.70;;;;;;5047986;28;20040;-76
2022/09/22 07:26:28;;;;;;;9.55;8.65;;;13.00;64.60;;;;;;5047030;28;21617;-77
2022/09/22 07:28:58;;;;;;;11.27;9.32;;;13.10;64.70;;;;;;5048565;28;20041;-77
2022/09/22 07:31:26;;;;;;;10.35;8.82;;;13.30;64.90;;;;;;5031200;28;20036;-77
2022/09/22 07:33:54;;;;;;;10.52;9.32;;;13.40;65.00;;;;;;5043147;28;20481;-76
2022/09/22 07:36:22;;;;;;;10.50;9.13;;;13.50;65.10;;;;;;5044224;28;20033;-76
2022/09/22 07:38:50;;;;;;;9.77;8.88;;;13.60;65.30;;;;;;5047063;28;20434;-79
2022/09/22 07:41:21;;;;;;;11.00;8.73;;;13.70;65.50;;;;;;5044025;28;20377;-77
2022/09/22 07:43:55;;;;;;;10.23;9.30;;;13.80;66.10;;;;;;5039100;28;20374;-76
2022/09/22 07:46:22;;;;;;;8.73;7.88;;;13.90;65.80;;;;;;5047937;28;20021;-76
2022/09/22 07:48:48;;;;;;;11.07;8.88;;;14.00;65.90;;;;;;5039932;28;20036;-78
2022/09/22 07:51:18;;;;;;;10.02;8.73;;;14.10;66.10;;;;;;5038504;28;20045;-76
2022/09/22 07:53:47;;;;;;;9.68;8.77;;;14.20;66.20;;;;;;5047032;28;20033;-76
2022/09/22 07:56:17;;;;;;;9.70;8.80;;;14.30;66.30;;;;;;5048674;28;20025;-75
2022/09/22 07:58:52;;;;;;;9.50;8.50;;;14.40;66.40;;;;;;5043638;28;20048;-76
2022/09/22 08:01:20;;;;;;;10.90;8.57;;;14.50;66.60;;;;;;5046639;28;20051;-75
2022/09/22 08:03:49;;;;;;;9.43;8.45;;;14.60;66.60;;;;;;5048233;28;20033;-78
2022/09/22 08:06:18;;;;;;;8.23;7.38;;;14.80;66.90;;;;;;5050308;28;20030;-76
2022/09/22 08:08:54;;;;;;;10.63;8.20;;;15.00;67.20;;;;;;5041618;28;20033;-76
2022/09/22 08:11:26;;;;;;;8.60;7.60;;;15.10;67.40;;;;;;5046768;28;20047;-75
2022/09/22 08:14:00;;;;;;;10.77;8.25;;;15.30;67.60;;;;;;5042482;28;20025;-78
2022/09/22 08:16:28;;;;;;;11.15;7.90;;;15.40;67.60;;;;;;5038415;28;20026;-79
2022/09/22 08:19:01;;;;;;;7.97;7.18;;;15.50;67.60;;;;;;5038464;28;20048;-77
2022/09/22 08:21:34;;;;;;;9.68;8.77;;;15.60;67.60;;;;;;5048193;28;20091;-79
2022/09/22 08:24:01;;;;;;;;;;;15.70;67.70;;;;;;5047532;28;20040;-76
2022/09/22 08:26:35;;;;;;;8.48;7.28;;;15.80;67.60;;;;;;5031433;28;19916;-78
2022/09/22 08:29:02;;;;;;;9.60;8.25;;;15.90;67.50;;;;;;5045586;28;20029;-75
2022/09/22 08:31:28;;;;;;;8.90;8.00;;;15.90;67.50;;;;;;5045525;28;20158;-76
2022/09/22 08:33:55;;;;;;;9.48;8.45;;;16.00;67.80;;;;;;5026222;28;20033;-77
2022/09/22 08:36:23;;;;;;;11.95;8.18;;;16.10;68.00;;;;;;5023521;28;20478;-76
2022/09/22 08:38:50;;;;;;;9.25;8.35;;;16.10;67.90;;;;;;5035214;28;20033;-76
2022/09/22 08:41:28;;;;;;;8.48;7.28;;;16.20;68.00;;;;;;5046850;28;20519;-76
2022/09/22 08:44:02;;;;;;;8.77;7.88;;;16.30;68.20;;;;;;5047312;28;20037;-77
2022/09/22 08:46:39;;;;;;;7.78;7.07;;;16.40;68.30;;;;;;5025196;28;20040;-76
2022/09/22 08:52:41;;;;;;;7.03;6.43;;;16.60;68.40;;;;;;5018632;28;20065;-75
2022/09/22 08:55:20;;;;;;;7.65;6.72;;;16.60;68.10;;;;;;5036134;28;20025;-75
2022/09/22 08:58:10;;;;;;;6.13;5.53;;;16.70;68.20;;;;;;5032744;28;20439;-74
2022/09/22 09:00:41;;;;;;;8.73;6.50;;;16.80;68.20;;;;;;5031579;28;20136;-75
2022/09/22 09:03:22;;;;;;;4.53;3.90;;;16.90;68.20;;;;;;5057617;28;20021;-77
2022/09/22 09:06:02;;;;;;;6.82;4.63;;;17.00;68.30;;;;;;5049313;28;20501;-75
2022/09/22 09:09:00;;;;;;;5.65;4.30;;;17.20;68.40;;;;;;5042252;28;20040;-76
2022/09/22 09:11:58;;;;;;;6.10;4.80;;;17.30;68.30;;;;;;5035545;28;20033;-79
2022/09/22 09:14:42;;;;;;;4.30;3.90;;;17.40;68.30;;;;;;5050818;28;20032;-78
2022/09/22 09:17:17;;;;;;;4.70;3.90;;;17.50;68.20;;;;;;5035924;28;20388;-80
2022/09/22 09:19:51;;;;;;;5.88;3.85;;;17.70;68.90;;;;;;5045336;28;20520;-77
2022/09/22 09:22:23;;;;;;;4.25;3.78;;;17.80;68.20;;;;;;5051318;28;20029;-78
2022/09/22 09:24:55;;;;;;;5.07;4.57;;;17.90;68.10;;;;;;5046189;28;20507;-77
2022/09/22 09:27:26;;;;;;;4.15;3.67;;;18.10;68.20;;;;;;5039184;28;20171;-77
2022/09/22 09:30:05;;;;;;;3.85;3.53;;;18.10;67.90;;;;;;5049144;28;20318;-77
2022/09/22 09:32:37;;;;;;;6.65;3.25;;;18.30;67.90;;;;;;5048997;28;20036;-78
2022/09/22 09:35:04;;;;;;;3.70;2.73;;;18.50;67.90;;;;;;5049821;28;20412;-79
2022/09/22 09:37:31;;;;;;;3.53;3.20;;;18.50;67.60;;;;;;5039593;28;20274;-78
2022/09/22 09:40:03;;;;;;;6.07;3.20;;;18.60;67.60;;;;;;5046123;28;20585;-77
2022/09/22 09:42:33;;;;;;;6.70;3.03;;;18.70;67.60;;;;;;5052135;28;20044;-77
2022/09/22 09:45:01;;;;;;;3.67;2.70;;;18.80;67.50;;;;;;5048746;28;20040;-77
2022/09/22 09:48:20;;;;;;;3.80;2.65;;;18.90;67.50;;;;;;5043675;28;20105;-79
2022/09/22 09:50:47;;;;;;;5.85;2.60;;;19.00;67.40;;;;;;5010418;28;20045;-78
2022/09/22 09:53:30;;;;;;;4.47;2.80;;;19.10;67.30;;;;;;5039616;28;20096;-78
2022/09/22 09:55:56;;;;;;;4.72;2.90;;;19.10;67.10;;;;;;5050863;28;20025;-78
2022/09/22 10:01:12;;;;;;;3.95;2.85;;;19.30;67.00;;;;;;5051301;28;20059;-77
2022/09/22 10:03:46;;;;;;;;;;;19.40;66.90;;;;;;5058297;28;20021;-77
2022/09/22 10:06:13;;;;;;;3.97;2.40;;;19.50;66.80;;;;;;5046663;28;19909;-77
2022/09/22 10:08:49;;;;;;;3.38;2.00;;;19.60;66.70;;;;;;5037417;28;20032;-77
2022/09/22 10:11:26;;;;;;;3.38;2.42;;;19.80;67.30;;;;;;5038600;28;20097;-76
2022/09/22 10:13:56;;;;;;;4.40;2.55;;;19.90;66.60;;;;;;5047813;28;20114;-76
2022/09/22 10:16:30;;;;;;;4.05;3.13;;;20.00;66.40;;;;;;5050169;28;20034;-77
2022/09/22 10:18:58;;;;;;;3.33;2.63;;;20.10;66.20;;;;;;5045689;28;20074;-77
2022/09/22 10:21:25;;;;;;;4.63;2.60;;;20.20;66.00;;;;;;5047189;28;20021;-76
2022/09/22 10:23:54;;;;;;;4.32;2.80;;;20.30;65.80;;;;;;5043996;28;20025;-77
2022/09/22 10:26:29;;;;;;;3.05;2.20;;;20.40;65.70;;;;;;5048685;28;20033;-76
2022/09/22 10:29:11;;;;;;;6.15;2.67;;;20.60;65.60;;;;;;5035864;28;20609;-76
2022/09/22 10:31:41;;;;;;;6.55;3.25;;;20.70;65.30;;;;;;5042815;28;20033;-76
2022/09/22 10:34:35;;;;;;;5.70;3.53;;;20.80;65.30;;;;;;5047911;28;20029;-79
2022/09/22 10:37:04;;;;;;;6.35;2.55;;;20.90;64.90;;;;;;5020600;28;20032;-79
2022/09/22 10:39:51;;;;;;;4.35;2.63;;;21.00;64.90;;;;;;5007802;28;20038;-77
2022/09/22 10:42:44;;;;;;;4.00;2.33;;;21.10;64.60;;;;;;5064756;28;20043;-77
2022/09/22 10:45:21;;;;;;;4.85;2.67;;;21.30;64.70;;;;;;5037007;28;20039;-77
2022/09/22 10:48:01;;;;;;;3.28;2.35;;;21.40;64.40;;;;;;5030862;28;20071;-78
2022/09/22 10:51:08;;;;;;;3.15;2.33;;;21.50;64.20;;;;;;5054326;28;20080;-78
2022/09/22 10:53:40;;;;;;;5.80;2.90;;;21.60;63.80;;;;;;5059298;28;20037;-78
2022/09/22 10:56:36;;;;;;;4.70;3.20;;;21.80;64.00;;;;;;5055378;28;20029;-80
2022/09/22 10:59:31;;;;;;;4.47;2.75;;;21.90;63.70;;;;;;5050403;28;20033;-78
2022/09/22 11:02:48;;;;;;;2.65;2.30;;;22.10;63.40;;;;;;5055882;28;20036;-77
2022/09/22 11:12:18;;;;;;;3.05;2.40;;;22.40;62.90;;;;;;5039662;28;20047;-76
2022/09/22 11:15:02;;;;;;;3.17;2.88;;;22.40;62.70;;;;;;5033492;28;20025;-77
2022/09/22 11:17:51;;;;;;;3.63;2.50;;;22.40;62.50;;;;;;5012123;28;20025;-75
2022/09/22 11:20:31;;;;;;;3.00;2.40;;;22.50;62.40;;;;;;5045337;28;20045;-79
2022/09/22 11:23:08;;;;;;;4.90;2.85;;;22.60;62.20;;;;;;5014542;28;20035;-76
2022/09/22 11:26:04;;;;;;;3.58;2.05;;;22.70;62.20;;;;;;5047949;28;20033;-77
2022/09/22 11:28:49;;;;;;;5.60;2.80;;;22.80;61.70;;;;;;5047462;28;20077;-77
2022/09/22 11:31:30;;;;;;;3.63;1.98;;;23.00;61.80;;;;;;5039792;28;20029;-76
2022/09/22 11:34:19;;;;;;;2.47;1.95;;;23.10;61.40;;;;;;5036857;28;20033;-75
2022/09/22 11:36:57;;;;;;;4.75;1.80;;;23.20;61.00;;;;;;5044913;28;20047;-77
2022/09/22 11:39:44;;;;;;;2.15;1.98;;;23.30;61.10;;;;;;5039659;28;20041;-77
2022/09/22 11:42:20;;;;;;;4.32;2.35;;;23.30;60.70;;;;;;5037557;28;20028;-78
2022/09/22 11:45:06;;;;;;;3.47;2.28;;;23.40;60.70;;;;;;5049237;28;20040;-77
2022/09/22 11:47:44;;;;;;;3.33;2.17;;;23.40;60.40;;;;;;5028939;28;20032;-82
2022/09/22 11:50:34;;;;;;;3.45;1.77;;;23.50;60.50;;;;;;5045479;28;20051;-75
2022/09/22 11:53:12;;;;;;;2.17;1.85;;;23.50;60.20;;;;;;5046185;28;20031;-76
2022/09/22 11:55:45;;;;;;;4.03;1.83;;;23.60;60.30;;;;;;5047749;28;20043;-76
2022/09/22 11:58:21;;;;;;;2.28;1.63;;;23.70;60.20;;;;;;5046149;28;20021;-78
2022/09/22 12:00:56;;;;;;;2.28;1.83;;;23.80;60.10;;;;;;5048533;28;20045;-79
2022/09/22 12:03:30;;;;;;;2.75;1.85;;;23.80;59.90;;;;;;5040115;28;20028;-77
2022/09/22 12:06:11;;;;;;;5.40;2.03;;;24.00;60.00;;;;;;5049250;28;20039;-79
2022/09/22 12:08:53;;;;;;;4.32;1.80;;;24.00;59.70;;;;;;5047556;28;20059;-79
2022/09/22 12:11:26;;;;;;;2.30;1.80;;;24.10;59.50;;;;;;5048572;28;20629;-78
2022/09/22 12:13:54;;;;;;;3.67;1.80;;;24.20;59.50;;;;;;5044626;28;20458;-78
2022/09/22 12:16:42;;;;;;;3.55;1.70;;;24.30;59.40;;;;;;5049596;28;20027;-80
2022/09/22 12:19:54;;;;;;;2.80;1.67;;;24.40;59.00;;;;;;5048236;28;20396;-78
2022/09/22 12:22:44;;;;;;;2.25;1.60;;;24.50;58.90;;;;;;5044666;28;20033;-78
2022/09/22 12:25:14;;;;;;;2.60;1.30;;;24.60;58.80;;;;;;5031372;28;20426;-77
2022/09/22 12:27:40;;;;;;;4.38;1.50;;;24.70;58.90;;;;;;5047208;28;20033;-77
2022/09/22 12:30:18;;;;;;;2.30;1.90;;;24.80;58.80;;;;;;5030759;28;20449;-78
2022/09/22 12:32:50;;;;;;;2.20;1.55;;;25.00;58.90;;;;;;5045913;28;20028;-77
2022/09/22 12:35:22;;;;;;;4.03;1.50;;;25.10;58.60;;;;;;5034704;28;20037;-76
2022/09/22 12:37:53;;;;;;;3.58;1.30;;;25.20;58.40;;;;;;5046421;28;20078;-76
2022/09/22 12:40:29;;;;;;;1.65;1.35;;;25.30;58.00;;;;;;5052024;28;20040;-78
2022/09/22 12:42:58;;;;;;;1.95;1.20;;;25.50;57.80;;;;;;5052511;28;20510;-77
2022/09/22 12:45:39;;;;;;;1.73;1.60;;;25.60;57.70;;;;;;5052049;28;20041;-77
2022/09/22 12:48:21;;;;;;;2.75;1.58;;;25.60;57.30;;;;;;5039417;28;20037;-78
2022/09/22 12:50:48;;;;;;;1.45;1.35;;;25.80;56.90;;;;;;5044839;28;20052;-76
2022/09/22 12:53:26;;;;;;;1.58;1.30;;;25.80;56.70;;;;;;5051874;28;20039;-78
2022/09/22 12:55:54;;;;;;;1.02;0.93;;;25.90;56.30;;;;;;5052222;28;20051;-77
2022/09/22 12:58:21;;;;;;;1.58;1.20;;;26.00;56.40;;;;;;5053524;28;20036;-77
2022/09/22 13:00:52;;;;;;;1.23;1.13;;;26.00;56.10;;;;;;5052318;28;20059;-77
2022/09/22 13:03:24;;;;;;;4.03;1.80;;;26.00;55.70;;;;;;5044312;28;20032;-77
2022/09/22 13:05:58;;;;;;;2.20;1.50;;;26.00;55.50;;;;;;5047370;28;20290;-74
2022/09/22 13:08:43;;;;;;;2.08;1.50;;;26.00;55.60;;;;;;5043187;28;20047;-76
2022/09/22 13:11:09;;;;;;;2.05;1.02;;;26.00;55.00;;;;;;5050424;28;20033;-77
2022/09/22 13:13:40;;;;;;;3.22;1.40;;;26.00;55.30;;;;;;5031906;28;20035;-76
2022/09/22 13:16:18;;;;;;;2.40;1.25;;;26.00;55.20;;;;;;5048485;28;20062;-75
2022/09/22 13:19:00;;;;;;;1.67;1.17;;;26.10;54.80;;;;;;5045716;28;20028;-76
2022/09/22 13:21:28;;;;;;;2.40;1.55;;;26.20;54.60;;;;;;5049344;28;20056;-77
2022/09/22 13:23:58;;;;;;;2.10;1.17;;;26.30;54.60;;;;;;5049260;28;20032;-75
2022/09/22 13:26:26;;;;;;;1.98;1.25;;;26.40;54.50;;;;;;5050292;28;20022;-78
2022/09/22 13:29:09;;;;;;;2.17;1.50;;;26.60;54.30;;;;;;5048220;28;20563;-77
2022/09/22 13:31:37;;;;;;;3.33;1.70;;;26.70;53.90;;;;;;5048845;28;20028;-77